createdAt,value
2018-12-08T00:00:52.615Z,95946.06
2018-12-08T00:03:22.212Z,95970.62
2018-12-08T00:05:52.246Z,95965.71
2018-12-08T00:08:21.337Z,95983.16
2018-12-08T00:10:50.207Z,95983.58
2018-12-08T00:13:20.802Z,95997.34
2018-12-08T00:15:50.119Z,96007.20
2018-12-08T00:18:20.494Z,96009.19
2018-12-08T00:20:50.375Z,96013.58
2018-12-08T00:23:19.478Z,96004.34
2018-12-08T00:25:48.823Z,96028.03
2018-12-08T00:28:18.749Z,96027.55
2018-12-08T00:30:58.949Z,96035.13
2018-12-08T00:33:28.341Z,96039.86
2018-12-08T00:35:58.956Z,96044.87
2018-12-08T00:38:31.960Z,96058.73
2018-12-08T00:41:02.185Z,96038.53
2018-12-08T00:43:32.211Z,96040.72
2018-12-08T00:46:01.387Z,96054.32
2018-12-08T00:48:30.331Z,96057.62
2018-12-08T00:50:58.883Z,96045.53
2018-12-08T00:53:28.481Z,96054.04
2018-12-08T00:55:59.401Z,96062.30
2018-12-08T00:58:28.413Z,96061.95
2018-12-08T01:00:58.193Z,96068.73
2018-12-08T01:03:28.141Z,96073.16
2018-12-08T01:06:00.374Z,96061.40
2018-12-08T01:08:28.910Z,96073.81
2018-12-08T01:10:58.731Z,96074.49
2018-12-08T01:13:28.546Z,96066.03
2018-12-08T01:15:58.390Z,96073.39
2018-12-08T01:18:26.914Z,96089.63
2018-12-08T01:20:56.862Z,96085.38
2018-12-08T01:23:26.074Z,96083.40
2018-12-08T01:25:56.279Z,96078.83
2018-12-08T01:28:26.686Z,96087.78
2018-12-08T01:30:55.348Z,96083.84
2018-12-08T01:33:25.918Z,96077.42
2018-12-08T01:35:55.005Z,96081.98
2018-12-08T01:38:25.429Z,96071.51
2018-12-08T01:40:57.284Z,96062.77
2018-12-08T01:43:27.772Z,96056.25
2018-12-08T01:45:58.633Z,96073.38
2018-12-08T01:48:29.174Z,96085.36
2018-12-08T01:50:58.585Z,96080.64
2018-12-08T01:53:27.775Z,96086.71
2018-12-08T01:55:58.002Z,96088.95
2018-12-08T01:58:28.581Z,96089.08
2018-12-08T02:00:58.609Z,96095.94
2018-12-08T02:03:28.320Z,96098.56
2018-12-08T02:05:57.642Z,96092.32
2018-12-08T02:08:26.152Z,96109.15
2018-12-08T02:10:55.632Z,96108.75
2018-12-08T02:13:28.282Z,96104.35
2018-12-08T02:15:58.326Z,96097.03
2018-12-08T02:18:28.706Z,96104.39
2018-12-08T02:21:00.088Z,96112.09
2018-12-08T02:23:30.777Z,96110.50
2018-12-08T02:26:00.186Z,96108.19
2018-12-08T02:28:30.610Z,96111.23
2018-12-08T02:31:00.475Z,96115.00
2018-12-08T02:33:31.177Z,96107.52
2018-12-08T02:36:01.464Z,96109.03
2018-12-08T02:38:30.723Z,96097.56
2018-12-08T02:41:00.914Z,95438.59
2018-12-08T02:43:29.838Z,96096.29
2018-12-08T02:45:59.687Z,96102.47
2018-12-08T02:48:29.151Z,96105.23
2018-12-08T02:50:59.164Z,96113.16
2018-12-08T02:53:28.864Z,96204.31
2018-12-08T02:55:58.238Z,96120.06
2018-12-08T02:58:28.599Z,96114.20
2018-12-08T03:00:58.563Z,96134.88
2018-12-08T03:03:28.191Z,96113.87
2018-12-08T03:05:57.886Z,96116.00
2018-12-08T03:08:27.845Z,96119.21
2018-12-08T03:10:56.838Z,96129.13
2018-12-08T03:13:26.332Z,96139.70
2018-12-08T03:15:56.440Z,96136.97
2018-12-08T03:18:25.547Z,96132.08
2018-12-08T03:20:55.130Z,96128.53
2018-12-08T03:23:24.346Z,96127.39
2018-12-08T03:25:54.388Z,96142.27
2018-12-08T03:28:23.787Z,96134.27
2018-12-08T03:30:54.855Z,96039.70
2018-12-08T03:33:24.958Z,96130.23
2018-12-08T03:35:56.368Z,96133.16
2018-12-08T03:38:29.569Z,96137.28
2018-12-08T03:41:00.467Z,96126.21
2018-12-08T03:43:30.614Z,96124.31
2018-12-08T03:46:00.158Z,96130.30
2018-12-08T03:48:28.808Z,96134.33
2018-12-08T03:50:59.800Z,96147.19
2018-12-08T03:53:31.754Z,96146.61
2018-12-08T03:56:05.451Z,96135.20
2018-12-08T03:58:36.162Z,96151.37
2018-12-08T04:01:05.088Z,96153.08
2018-12-08T04:03:35.324Z,96137.69
2018-12-08T04:06:04.456Z,96152.16
2018-12-08T04:08:34.453Z,96150.64
2018-12-08T04:11:06.273Z,96153.47
2018-12-08T04:13:35.855Z,96165.73
2018-12-08T04:16:07.296Z,96156.72
2018-12-08T04:18:37.191Z,96153.55
2018-12-08T04:21:06.794Z,96157.83
2018-12-08T04:23:37.695Z,96144.14
2018-12-08T04:26:06.633Z,96136.89
2018-12-08T04:28:36.056Z,96141.58
2018-12-08T04:31:05.764Z,96150.97
2018-12-08T04:33:35.811Z,96149.97
2018-12-08T04:36:07.414Z,96164.80
2018-12-08T04:38:38.216Z,96157.23
2018-12-08T04:41:07.740Z,96205.71
2018-12-08T04:43:37.161Z,96165.27
2018-12-08T04:46:08.643Z,96161.73
2018-12-08T04:48:37.298Z,96164.42
2018-12-08T04:51:07.132Z,96150.64
2018-12-08T04:53:36.236Z,96154.00
2018-12-08T04:56:08.839Z,96149.55
2018-12-08T04:58:38.181Z,96161.08
2018-12-08T05:01:07.183Z,96158.22
2018-12-08T05:03:37.153Z,96153.92
2018-12-08T05:06:08.619Z,96164.17
2018-12-08T05:08:40.678Z,96157.56
2018-12-08T05:11:11.919Z,96156.67
2018-12-08T05:13:42.314Z,96159.37
2018-12-08T05:16:13.048Z,96166.18
2018-12-08T05:18:44.017Z,96173.73
2018-12-08T05:21:14.970Z,96168.98
2018-12-08T05:23:45.115Z,96192.18
2018-12-08T05:26:15.697Z,96176.41
2018-12-08T05:28:46.109Z,96168.59
2018-12-08T05:31:15.557Z,96169.72
2018-12-08T05:33:46.551Z,96166.70
2018-12-08T05:36:17.333Z,96178.00
2018-12-08T05:38:47.651Z,96176.41
2018-12-08T05:41:16.748Z,95844.66
2018-12-08T05:43:46.095Z,96273.24
2018-12-08T05:46:15.061Z,96186.26
2018-12-08T05:48:44.581Z,96187.05
2018-12-08T05:51:15.266Z,96201.00
2018-12-08T05:53:44.552Z,96208.06
2018-12-08T05:56:14.058Z,96205.78
2018-12-08T05:58:45.858Z,96215.30
2018-12-08T06:01:16.019Z,96213.97
2018-12-08T06:03:46.836Z,96212.20
2018-12-08T06:06:16.079Z,96214.39
2018-12-08T06:08:47.737Z,96214.34
2018-12-08T06:11:16.794Z,96220.23
2018-12-08T06:13:45.948Z,96218.48
2018-12-08T06:16:15.631Z,96217.23
2018-12-08T06:18:46.756Z,96220.42
2018-12-08T06:21:17.768Z,96219.17
2018-12-08T06:23:48.474Z,96217.96
2018-12-08T06:26:21.492Z,96209.86
2018-12-08T06:28:55.683Z,94630.33
2018-12-08T06:31:25.948Z,96192.95
2018-12-08T06:33:55.075Z,96201.06
2018-12-08T06:36:26.117Z,96206.59
2018-12-08T06:38:55.891Z,96205.09
2018-12-08T06:41:26.223Z,96212.14
2018-12-08T06:43:55.315Z,96207.90
2018-12-08T06:46:25.592Z,96201.84
2018-12-08T06:48:54.773Z,96201.14
2018-12-08T06:51:23.742Z,95794.09
2018-12-08T06:53:53.421Z,96188.82
2018-12-08T06:56:23.317Z,96188.58
2018-12-08T06:58:55.114Z,96197.70
2018-12-08T07:01:24.579Z,96187.31
2018-12-08T07:03:55.027Z,96185.03
2018-12-08T07:06:23.574Z,96161.52
2018-12-08T07:08:53.526Z,96163.70
2018-12-08T07:11:23.231Z,96165.45
2018-12-08T07:13:54.864Z,96175.07
2018-12-08T07:16:25.132Z,96173.28
2018-12-08T07:18:55.046Z,96172.30
2018-12-08T07:21:24.974Z,96170.39
2018-12-08T07:23:54.207Z,96166.55
2018-12-08T07:26:24.997Z,96165.05
2018-12-08T07:28:54.679Z,96172.92
2018-12-08T07:31:23.296Z,96159.41
2018-12-08T07:33:53.794Z,96163.08
2018-12-08T07:36:23.521Z,96159.62
2018-12-08T07:38:54.434Z,96167.59
2018-12-08T07:41:26.448Z,96154.25
2018-12-08T07:43:56.954Z,96150.38
2018-12-08T07:46:27.156Z,96160.95
2018-12-08T07:48:55.846Z,96162.88
2018-12-08T07:51:25.859Z,96154.66
2018-12-08T07:53:56.019Z,96159.32
2018-12-08T07:56:28.086Z,96154.52
2018-12-08T07:58:57.566Z,96147.75
2018-12-08T08:01:27.198Z,96129.87
2018-12-08T08:03:57.880Z,96125.31
2018-12-08T08:06:27.401Z,96123.66
2018-12-08T08:08:57.410Z,96116.05
2018-12-08T08:11:26.217Z,96123.80
2018-12-08T08:13:55.827Z,96131.02
2018-12-08T08:16:24.325Z,96128.77
2018-12-08T08:18:54.526Z,96133.39
2018-12-08T08:21:23.995Z,96131.92
2018-12-08T08:23:53.650Z,96130.73
2018-12-08T08:26:23.528Z,96184.83
2018-12-08T08:28:54.255Z,96119.74
2018-12-08T08:31:23.997Z,96119.70
2018-12-08T08:33:53.887Z,96117.31
2018-12-08T08:36:25.285Z,96122.08
2018-12-08T08:38:54.819Z,96118.17
2018-12-08T08:41:27.387Z,96104.60
2018-12-08T08:43:57.091Z,96105.46
2018-12-08T08:46:28.187Z,96109.02
2018-12-08T08:48:57.185Z,96109.88
2018-12-08T08:51:28.277Z,96093.97
2018-12-08T08:53:58.726Z,96111.69
2018-12-08T08:56:31.501Z,96107.42
2018-12-08T08:59:01.538Z,96110.27
2018-12-08T09:01:30.746Z,96110.08
2018-12-08T09:03:59.814Z,96096.63
2018-12-08T09:06:29.542Z,96092.83
2018-12-08T09:08:58.213Z,96102.91
2018-12-08T09:11:27.755Z,96095.74
2018-12-08T09:13:58.348Z,96090.49
2018-12-08T09:16:29.926Z,96091.84
2018-12-08T09:19:01.171Z,96097.19
2018-12-08T09:21:31.285Z,96085.98
2018-12-08T09:24:00.651Z,96070.69
2018-12-08T09:26:29.237Z,96074.50
2018-12-08T09:29:00.255Z,96081.23
2018-12-08T09:31:31.869Z,96076.70
2018-12-08T09:34:02.230Z,96073.89
2018-12-08T09:36:31.658Z,96053.70
2018-12-08T09:39:05.422Z,96052.56
2018-12-08T09:41:38.658Z,96056.00
2018-12-08T09:44:08.577Z,96073.71
2018-12-08T09:46:38.686Z,96069.25
2018-12-08T09:49:13.483Z,96070.70
2018-12-08T09:51:43.026Z,96070.20
2018-12-08T09:54:12.884Z,96072.38
2018-12-08T09:56:43.476Z,96065.66
2018-12-08T09:59:12.160Z,96072.41
2018-12-08T10:01:41.614Z,96077.23
2018-12-08T10:04:11.872Z,96063.81
2018-12-08T10:06:43.196Z,96063.78
2018-12-08T10:09:12.650Z,96070.02
2018-12-08T10:11:42.619Z,96068.28
2018-12-08T10:14:12.430Z,96059.48
2018-12-08T10:16:41.000Z,96062.16
2018-12-08T10:19:10.686Z,96064.77
2018-12-08T10:21:40.158Z,96054.20
2018-12-08T10:24:10.582Z,96069.42
2018-12-08T10:26:40.789Z,96067.33
2018-12-08T10:29:10.199Z,96064.77
2018-12-08T10:31:40.800Z,96070.32
2018-12-08T10:34:11.902Z,96072.92
2018-12-08T10:36:40.855Z,96076.75
2018-12-08T10:39:10.795Z,96082.70
2018-12-08T10:41:39.815Z,96194.64
2018-12-08T10:44:10.408Z,96044.78
2018-12-08T10:46:40.913Z,95874.09
2018-12-08T10:49:09.832Z,96035.80
2018-12-08T10:51:42.465Z,96045.93
2018-12-08T10:54:14.489Z,96047.31
2018-12-08T10:56:48.439Z,96045.00
2018-12-08T10:59:20.434Z,96052.23
2018-12-08T11:01:55.867Z,96049.52
2018-12-08T11:04:26.520Z,96054.63
2018-12-08T11:06:56.309Z,96061.22
2018-12-08T11:09:29.815Z,96051.70
2018-12-08T11:12:01.365Z,96055.02
2018-12-08T11:14:31.667Z,96064.38
2018-12-08T11:17:00.681Z,96052.78
2018-12-08T11:19:29.999Z,95967.92
2018-12-08T11:21:59.214Z,96046.11
2018-12-08T11:24:29.256Z,96037.87
2018-12-08T11:26:59.162Z,96042.34
2018-12-08T11:29:28.520Z,96035.88
2018-12-08T11:32:00.319Z,96022.83
2018-12-08T11:34:30.426Z,96032.80
2018-12-08T11:36:59.979Z,96026.52
2018-12-08T11:39:29.446Z,96024.82
2018-12-08T11:42:00.595Z,96029.15
2018-12-08T11:44:32.105Z,96039.89
2018-12-08T11:47:01.759Z,96040.99
2018-12-08T11:49:30.782Z,96034.88
2018-12-08T11:52:00.832Z,96025.15
2018-12-08T11:54:30.504Z,96037.09
2018-12-08T11:57:00.933Z,96024.52
2018-12-08T11:59:30.482Z,96025.65
2018-12-08T12:02:00.303Z,96021.61
2018-12-08T12:04:31.557Z,96030.45
2018-12-08T12:07:01.710Z,96024.49
2018-12-08T12:09:30.252Z,96026.30
2018-12-08T12:12:00.489Z,96028.62
2018-12-08T12:14:40.870Z,96035.50
2018-12-08T12:17:09.646Z,96036.78
2018-12-08T12:19:40.406Z,96041.32
2018-12-08T12:22:09.892Z,96030.32
2018-12-08T12:24:39.105Z,96035.27
2018-12-08T12:27:08.246Z,96036.42
2018-12-08T12:29:38.004Z,96037.52
2018-12-08T12:32:07.219Z,96031.69
2018-12-08T12:34:37.276Z,96024.00
2018-12-08T12:37:07.345Z,96021.31
2018-12-08T12:39:37.419Z,96015.92
2018-12-08T12:42:06.320Z,96023.97
2018-12-08T12:44:36.079Z,96012.73
2018-12-08T12:47:06.186Z,96025.91
2018-12-08T12:49:35.502Z,96013.03
2018-12-08T12:52:04.912Z,96017.80
2018-12-08T12:54:33.903Z,96011.47
2018-12-08T12:57:02.627Z,96008.47
2018-12-08T12:59:31.812Z,96020.02
2018-12-08T13:02:01.725Z,96013.34
2018-12-08T13:04:31.580Z,96028.92
2018-12-08T13:07:01.652Z,96025.33
2018-12-08T13:09:32.875Z,96024.47
2018-12-08T13:12:02.548Z,96017.17
2018-12-08T13:14:32.074Z,96031.05
2018-12-08T13:17:01.141Z,96025.77
2018-12-08T13:19:31.142Z,96025.17
2018-12-08T13:22:00.572Z,96024.37
2018-12-08T13:24:33.293Z,96025.33
2018-12-08T13:27:03.278Z,96030.05
2018-12-08T13:29:33.373Z,96042.84
2018-12-08T13:32:03.345Z,96014.45
2018-12-08T13:34:34.773Z,96018.44
2018-12-08T13:37:04.498Z,96014.88
2018-12-08T13:39:36.114Z,95621.55
2018-12-08T13:42:06.023Z,95621.44
2018-12-08T13:44:37.595Z,96024.97
2018-12-08T13:47:07.653Z,96024.80
2018-12-08T13:49:38.030Z,96031.05
2018-12-08T13:52:08.071Z,96021.94
2018-12-08T13:54:51.336Z,96032.89
2018-12-08T13:57:20.579Z,96030.06
2018-12-08T13:59:55.975Z,96028.16
2018-12-08T14:02:27.050Z,96023.31
2018-12-08T14:04:59.726Z,96020.36
2018-12-08T14:07:28.686Z,96031.33
2018-12-08T14:09:57.255Z,96030.54
2018-12-08T14:12:26.895Z,96034.54
2018-12-08T14:14:56.970Z,96031.60
2018-12-08T14:17:27.550Z,96037.98
2018-12-08T14:20:00.238Z,96033.25
2018-12-08T14:22:29.699Z,96035.30
2018-12-08T14:24:58.683Z,96036.69
2018-12-08T14:27:27.303Z,96040.78
2018-12-08T14:29:57.054Z,96042.04
2018-12-08T14:32:27.314Z,96048.80
2018-12-08T14:34:55.949Z,96047.39
2018-12-08T14:37:26.078Z,96044.13
2018-12-08T14:39:56.564Z,96055.13
2018-12-08T14:42:26.803Z,96052.77
2018-12-08T14:44:57.840Z,96053.17
2018-12-08T14:47:28.676Z,96050.75
2018-12-08T14:49:59.337Z,96056.03
2018-12-08T14:52:30.359Z,96047.23
2018-12-08T14:54:59.847Z,95154.76
2018-12-08T14:57:29.552Z,96046.30
2018-12-08T14:59:58.605Z,96042.68
2018-12-08T15:02:28.791Z,96039.29
2018-12-08T15:04:57.810Z,96044.33
2018-12-08T15:07:26.822Z,96039.57
2018-12-08T15:09:55.371Z,96027.89
2018-12-08T15:12:25.894Z,96029.08
2018-12-08T15:14:57.514Z,96027.03
2018-12-08T15:17:29.450Z,96033.83
2018-12-08T15:20:02.371Z,96023.94
2018-12-08T15:22:36.195Z,96013.22
2018-12-08T15:25:07.144Z,96020.36
2018-12-08T15:27:37.225Z,96019.56
2018-12-08T15:30:08.450Z,96013.41
2018-12-08T15:32:38.855Z,96013.91
2018-12-08T15:35:11.503Z,96004.14
2018-12-08T15:37:40.662Z,96000.53
2018-12-08T15:40:13.427Z,96005.20
2018-12-08T15:42:43.947Z,95995.75
2018-12-08T15:45:14.579Z,95996.61
2018-12-08T15:47:43.925Z,95994.23
2018-12-08T15:50:12.666Z,95991.33
2018-12-08T15:52:41.470Z,95983.59
2018-12-08T15:55:14.970Z,95996.33
2018-12-08T15:57:44.185Z,95987.56
2018-12-08T16:00:14.189Z,95983.87
2018-12-08T16:02:44.607Z,95989.38
2018-12-08T16:05:15.043Z,95986.77
2018-12-08T16:07:44.467Z,96000.27
2018-12-08T16:10:14.662Z,95990.55
2018-12-08T16:12:44.495Z,95988.84
2018-12-08T16:15:15.047Z,95993.52
2018-12-08T16:17:43.951Z,96005.70
2018-12-08T16:20:13.701Z,96001.87
2018-12-08T16:22:43.626Z,95999.81
2018-12-08T16:25:12.862Z,96004.72
2018-12-08T16:27:42.248Z,96002.05
2018-12-08T16:30:13.682Z,95990.82
2018-12-08T16:32:43.703Z,95988.59
2018-12-08T16:35:13.301Z,95988.81
2018-12-08T16:37:42.150Z,95986.09
2018-12-08T16:40:11.163Z,95979.73
2018-12-08T16:42:40.979Z,95980.89
2018-12-08T16:45:10.619Z,95967.50
2018-12-08T16:47:39.743Z,95973.49
2018-12-08T16:50:12.294Z,95968.13
2018-12-08T16:52:42.267Z,95962.54
2018-12-08T16:55:11.880Z,95953.80
2018-12-08T16:57:42.617Z,95956.69
2018-12-08T17:00:12.506Z,95962.12
2018-12-08T17:02:41.445Z,95960.02
2018-12-08T17:05:11.680Z,95963.28
2018-12-08T17:07:48.755Z,95956.49
2018-12-08T17:10:18.834Z,95951.42
2018-12-08T17:12:50.102Z,95938.20
2018-12-08T17:15:20.004Z,95927.94
2018-12-08T17:17:48.861Z,95930.42
2018-12-08T17:20:17.570Z,95927.47
2018-12-08T17:22:49.529Z,95918.66
2018-12-08T17:25:19.839Z,95910.91
2018-12-08T17:27:48.675Z,95906.73
2018-12-08T17:30:17.416Z,95908.41
2018-12-08T17:32:47.614Z,95911.19
2018-12-08T17:35:16.545Z,95906.80
2018-12-08T17:37:45.554Z,95897.31
2018-12-08T17:40:18.950Z,95894.90
2018-12-08T17:42:48.026Z,95880.73
2018-12-08T17:45:18.801Z,95881.37
2018-12-08T17:47:49.398Z,95874.92
2018-12-08T17:50:18.928Z,95872.33
2018-12-08T17:52:48.903Z,95877.59
2018-12-08T17:55:18.127Z,95854.77
2018-12-08T17:57:48.867Z,95903.52
2018-12-08T18:00:19.045Z,95842.58
2018-12-08T18:02:48.457Z,95839.23
2018-12-08T18:05:17.021Z,95839.86
2018-12-08T18:07:47.598Z,95837.03
2018-12-08T18:10:17.788Z,95835.88
2018-12-08T18:12:48.662Z,95830.83
2018-12-08T18:15:17.762Z,95828.30
2018-12-08T18:17:47.942Z,95829.50
2018-12-08T18:20:19.437Z,95828.77
2018-12-08T18:22:49.247Z,95824.24
2018-12-08T18:25:18.698Z,95817.97
2018-12-08T18:27:48.522Z,95812.77
2018-12-08T18:30:18.623Z,95801.73
2018-12-08T18:32:51.950Z,95788.06
2018-12-08T18:35:21.079Z,95788.55
2018-12-08T18:37:51.885Z,95788.55
2018-12-08T18:40:20.459Z,95805.64
2018-12-08T18:42:50.501Z,95817.51
2018-12-08T18:45:19.777Z,95805.38
2018-12-08T18:47:50.299Z,95802.41
2018-12-08T18:50:20.184Z,95827.50
2018-12-08T18:52:50.350Z,95797.72
2018-12-08T18:55:19.845Z,95784.64
2018-12-08T18:57:50.144Z,95768.59
2018-12-08T19:00:19.461Z,95774.44
2018-12-08T19:02:48.485Z,95781.52
2018-12-08T19:05:18.518Z,95776.28
2018-12-08T19:07:47.754Z,95774.69
2018-12-08T19:10:20.268Z,95775.61
2018-12-08T19:12:49.750Z,95775.07
2018-12-08T19:15:21.193Z,95763.51
2018-12-08T19:17:51.836Z,95756.36
2018-12-08T19:20:21.495Z,95753.73
2018-12-08T19:22:52.254Z,95734.52
2018-12-08T19:25:24.002Z,95731.64
2018-12-08T19:27:53.293Z,95732.11
2018-12-08T19:30:22.331Z,95727.34
2018-12-08T19:32:53.314Z,95715.27
2018-12-08T19:35:24.222Z,95714.47
2018-12-08T19:37:53.006Z,93963.98
2018-12-08T19:40:22.248Z,95701.08
2018-12-08T19:42:53.083Z,95701.30
2018-12-08T19:45:23.504Z,95703.35
2018-12-08T19:47:53.689Z,95699.44
2018-12-08T19:50:24.277Z,95697.58
2018-12-08T19:52:53.892Z,95693.42
2018-12-08T19:55:22.787Z,95679.43
2018-12-08T19:57:56.595Z,95672.06
2018-12-08T20:00:26.135Z,95668.93
2018-12-08T20:02:54.962Z,95675.17
2018-12-08T20:05:24.241Z,95657.34
2018-12-08T20:07:54.799Z,95648.14
2018-12-08T20:10:24.411Z,95656.77
2018-12-08T20:12:53.857Z,95645.52
2018-12-08T20:15:24.875Z,95653.77
2018-12-08T20:17:53.870Z,95649.52
2018-12-08T20:20:22.383Z,95649.00
2018-12-08T20:22:52.253Z,95640.67
2018-12-08T20:25:21.108Z,95632.56
2018-12-08T20:27:50.583Z,95635.19
2018-12-08T20:30:20.232Z,95625.36
2018-12-08T20:32:49.942Z,95608.22
2018-12-08T20:35:20.932Z,95600.84
2018-12-08T20:37:50.592Z,95598.52
2018-12-08T20:40:22.033Z,95595.89
2018-12-08T20:42:53.037Z,95594.53
2018-12-08T20:45:22.083Z,95588.21
2018-12-08T20:47:51.706Z,95577.44
2018-12-08T20:50:22.384Z,95571.42
2018-12-08T20:52:51.400Z,95564.09
2018-12-08T20:55:23.518Z,95552.22
2018-12-08T20:57:52.879Z,95548.81
2018-12-08T21:00:21.393Z,95550.36
2018-12-08T21:02:51.063Z,95538.55
2018-12-08T21:05:21.610Z,95543.79
2018-12-08T21:07:51.762Z,95528.84
2018-12-08T21:10:23.720Z,95516.48
2018-12-08T21:12:53.380Z,95515.45
2018-12-08T21:15:26.107Z,95510.18
2018-12-08T21:17:56.930Z,95501.00
2018-12-08T21:20:25.992Z,95490.48
2018-12-08T21:22:55.294Z,95487.31
2018-12-08T21:25:26.431Z,95392.89
2018-12-08T21:27:58.058Z,95476.26
2018-12-08T21:30:29.123Z,95469.17
2018-12-08T21:32:59.350Z,95471.83
2018-12-08T21:35:29.412Z,95451.28
2018-12-08T21:37:59.906Z,95462.34
2018-12-08T21:40:30.115Z,95449.17
2018-12-08T21:42:59.709Z,95441.27
2018-12-08T21:45:29.684Z,95443.65
2018-12-08T21:48:00.767Z,95451.79
2018-12-08T21:50:32.793Z,95442.58
2018-12-08T21:53:02.903Z,95426.50
2018-12-08T21:55:33.478Z,95418.38
2018-12-08T21:58:03.265Z,95413.09
2018-12-08T22:00:32.978Z,95396.28
2018-12-08T22:03:02.995Z,95387.52
2018-12-08T22:05:32.283Z,95370.72
2018-12-08T22:08:01.291Z,95370.23
2018-12-08T22:10:31.293Z,95352.27
2018-12-08T22:13:01.209Z,95360.73
2018-12-08T22:15:31.245Z,95366.79
2018-12-08T22:18:01.393Z,95361.02
2018-12-08T22:20:31.176Z,95364.65
2018-12-08T22:23:01.428Z,95047.84
2018-12-08T22:25:30.584Z,95325.33
2018-12-08T22:28:00.539Z,95320.38
2018-12-08T22:30:31.839Z,95313.25
2018-12-08T22:33:00.314Z,95305.17
2018-12-08T22:35:29.770Z,95299.11
2018-12-08T22:38:00.362Z,95290.69
2018-12-08T22:40:28.957Z,95289.78
2018-12-08T22:42:57.974Z,95280.36
2018-12-08T22:45:27.941Z,95259.57
2018-12-08T22:47:58.591Z,95246.29
2018-12-08T22:50:28.690Z,95246.92
2018-12-08T22:52:58.402Z,95241.36
2018-12-08T22:55:27.801Z,95227.16
2018-12-08T22:57:57.924Z,95227.67
2018-12-08T23:00:36.505Z,95221.55
2018-12-08T23:03:06.602Z,95229.70
2018-12-08T23:05:43.157Z,95222.34
2018-12-08T23:08:13.772Z,95218.61
2018-12-08T23:10:44.226Z,95214.53
2018-12-08T23:13:14.674Z,95210.20
2018-12-08T23:15:44.752Z,95198.95
2018-12-08T23:18:14.341Z,95194.84
2018-12-08T23:20:42.950Z,95172.08
2018-12-08T23:23:12.712Z,95178.23
2018-12-08T23:25:43.786Z,95177.23
2018-12-08T23:28:12.547Z,95163.61
2018-12-08T23:30:41.669Z,95183.44
2018-12-08T23:33:12.359Z,95177.91
2018-12-08T23:35:41.613Z,95173.39
2018-12-08T23:38:10.969Z,95175.03
2018-12-08T23:40:40.923Z,95187.89
2018-12-08T23:43:12.410Z,95170.42
2018-12-08T23:45:43.622Z,95166.77
2018-12-08T23:48:12.165Z,95178.44
2018-12-08T23:50:44.900Z,95162.84
2018-12-08T23:53:13.808Z,95166.23
2018-12-08T23:55:44.430Z,95152.81
2018-12-08T23:58:15.317Z,95156.97
